Etusivu
METAR-TAF:

METAR-TAF

Lentoasemat :

Metlakatla, Alaska, Yhdysvallat

Leveyspiiri: 55-07-52N, Pituuspiiri: 131-34-41W, korkeus merenpinnasta: 0 m

Tämänhetkinen sää

Tämä raportti tehtiin 19 minuuttia sitten, kello 11.56 UTC
Tuuli 3 kn kaakosta
Lämpötila 7°C
Kosteus 87%
Ilmanpaine 1016 hPa
Näkyvyys: 16.1 km
Muutamia pilviä 2300 ft:n korkeudessa
Pilvistä 4400 ft:n korkeudessa

METAR: PAMM 181156Z AUTO 13003KT 10SM FEW023 OVC044 07/05 A3001 RMK AO2 RAE02 SLP152 P0000 60000 70023 T00720050 10083 20072 58005 $

Aika: 03:15 (12:15 UTC)


TAF: puuttuu

Säähavainnot ja -ennusteet yli 4000 lentoasemalta (METAR- ja TAF-raportit).

Käytössä olevat sääasemat on merkitty karttaan keltaisilla ja punaisilla pisteillä.

Aseta hiiri pisteen päälle nähdäksesi sääaseman nimen.

Klikkaa sitten nähdäksesi säähavainnot ja -ennusteet.

Kartan vaihtaminen: klikkaa mustalla rastilla varustettuja vihreitä pisteitä, niin voit zoomata sisään; viivalla varustettua vihreää pistettä, niin voit zoomata ulos tai vihreitä nuolia, niin pääset viereisille kartoille.


METAR-TAF: